Time;durP1;ratioP1;P1;durP2;ratioP2;P2;SDS_P1;SDS_P2;PMS_P1;PMS_P2;Temp;Humidity;BMP_temperature;BMP_pressure;BME280_temperature;BME280_humidity;BME280_pressure;Samples;Min_cycle;Max_cycle;Signal;HPM_P1;HPM_P2
2021/11/30 00:01:37;;;;;;;10.07;4.40;;;5.00;99.90;;;;;;4999904;28;20232;-53
2021/11/30 00:04:04;;;;;;;10.30;4.53;;;5.00;99.90;;;;;;4997999;28;20682;-54
2021/11/30 00:06:33;;;;;;;10.40;4.40;;;5.00;99.90;;;;;;4997692;28;20259;-54
2021/11/30 00:09:22;;;;;;;11.57;4.07;;;5.00;99.90;;;;;;4998460;28;20272;-54
2021/11/30 00:11:50;;;;;;;7.40;4.83;;;5.00;99.90;;;;;;5000318;28;20250;-52
2021/11/30 00:14:17;;;;;;;10.70;4.37;;;5.00;99.90;;;;;;4997860;28;20252;-53
2021/11/30 00:16:43;;;;;;;8.37;4.27;;;5.00;99.90;;;;;;4997089;28;20305;-53
2021/11/30 00:19:10;;;;;;;7.23;3.87;;;4.90;99.90;;;;;;4998028;28;20295;-54
2021/11/30 00:21:37;;;;;;;8.80;3.47;;;4.90;99.90;;;;;;4999260;28;20304;-54
2021/11/30 00:24:04;;;;;;;7.50;4.00;;;4.90;99.90;;;;;;4996704;28;20915;-52
2021/11/30 00:26:31;;;;;;;7.53;3.50;;;5.00;99.90;;;;;;4996476;28;20235;-52
2021/11/30 00:28:59;;;;;;;6.37;3.57;;;5.00;99.90;;;;;;4998027;28;20212;-54
2021/11/30 00:31:26;;;;;;;10.50;3.97;;;5.00;99.90;;;;;;4998219;28;20756;-53
2021/11/30 00:33:53;;;;;;;5.80;3.03;;;4.90;99.90;;;;;;4997414;28;20825;-52
2021/11/30 00:36:20;;;;;;;7.67;3.67;;;5.00;99.90;;;;;;4999255;28;20207;-53
2021/11/30 00:38:47;;;;;;;9.77;3.87;;;4.90;99.90;;;;;;4996903;28;20254;-52
2021/11/30 00:41:14;;;;;;;6.10;3.13;;;4.90;99.90;;;;;;4998173;28;20236;-55
2021/11/30 00:43:41;;;;;;;7.40;3.67;;;4.90;99.90;;;;;;4998317;28;20306;-54
2021/11/30 00:46:53;;;;;;;11.00;3.73;;;4.80;99.90;;;;;;4998990;28;20599;-54
2021/11/30 00:49:00;;;;;;;18.40;4.67;;;4.90;99.90;;;;;;5004911;28;20271;-52
2021/11/30 00:51:27;;;;;;;14.03;4.20;;;4.80;99.90;;;;;;5002319;28;20720;-54
2021/11/30 00:53:54;;;;;;;17.67;4.50;;;4.80;99.90;;;;;;5002903;28;20681;-53
2021/11/30 00:56:21;;;;;;;14.67;4.70;;;4.80;99.90;;;;;;5000914;28;20251;-54
2021/11/30 00:58:48;;;;;;;16.60;4.57;;;4.70;99.90;;;;;;5001522;28;21028;-51
2021/11/30 01:01:15;;;;;;;16.20;5.60;;;4.70;99.90;;;;;;5002223;28;20209;-53
2021/11/30 01:03:42;;;;;;;13.77;4.47;;;4.70;99.90;;;;;;5000782;28;20206;-55
2021/11/30 01:06:09;;;;;;;11.77;4.10;;;4.60;99.90;;;;;;4999550;28;20650;-52
2021/11/30 01:08:36;;;;;;;10.17;4.37;;;4.60;99.90;;;;;;5000559;28;20689;-52
2021/11/30 01:11:04;;;;;;;11.77;5.00;;;4.60;99.90;;;;;;5000013;28;20321;-54
2021/11/30 01:13:33;;;;;;;10.30;4.67;;;4.50;99.90;;;;;;5000792;28;20236;-52
2021/11/30 01:16:01;;;;;;;10.83;4.47;;;4.40;99.90;;;;;;5002252;28;20233;-53
2021/11/30 01:18:28;;;;;;;9.43;4.40;;;4.40;99.90;;;;;;5000391;28;20609;-51
2021/11/30 01:20:55;;;;;;;12.63;4.60;;;4.40;99.90;;;;;;5000146;28;20760;-52
2021/11/30 01:23:22;;;;;;;12.03;5.20;;;4.40;99.90;;;;;;5000670;28;20206;-53
2021/11/30 01:25:49;;;;;;;7.47;4.07;;;4.30;99.90;;;;;;5001703;28;20722;-52
2021/11/30 01:28:16;;;;;;;13.17;4.60;;;4.20;99.90;;;;;;4999389;28;20239;-52
2021/11/30 01:30:43;;;;;;;8.20;4.23;;;4.30;99.90;;;;;;4998652;28;20654;-52
2021/11/30 01:33:09;;;;;;;10.73;4.03;;;4.20;99.90;;;;;;4997900;28;20223;-54
2021/11/30 01:35:36;;;;;;;12.40;3.93;;;4.30;99.90;;;;;;4999424;28;20202;-53
2021/11/30 01:38:04;;;;;;;9.20;5.00;;;4.30;99.90;;;;;;5002252;28;20246;-52
2021/11/30 01:40:31;;;;;;;10.37;4.30;;;4.30;99.90;;;;;;4999808;28;20240;-53
2021/11/30 01:43:00;;;;;;;11.20;4.07;;;4.30;99.90;;;;;;4997959;28;20280;-53
2021/11/30 01:45:32;;;;;;;9.23;3.80;;;4.30;99.90;;;;;;5000801;28;20611;-53
2021/11/30 01:50:32;;;;;;;8.30;3.57;;;4.30;99.90;;;;;;4999896;28;20222;-52
2021/11/30 01:52:58;;;;;;;6.67;3.47;;;4.30;99.90;;;;;;5000926;28;20293;-53
2021/11/30 01:55:27;;;;;;;7.90;3.53;;;4.30;99.90;;;;;;4999372;28;20226;-55
2021/11/30 01:57:54;;;;;;;8.73;3.67;;;4.30;99.90;;;;;;4997919;28;20711;-53
2021/11/30 02:00:22;;;;;;;5.90;3.03;;;4.30;99.90;;;;;;5000145;28;20664;-54
2021/11/30 02:02:50;;;;;;;9.97;3.83;;;4.30;99.90;;;;;;4998477;28;20207;-53
2021/11/30 02:05:17;;;;;;;7.40;3.63;;;4.30;99.90;;;;;;5001044;28;20212;-53
2021/11/30 02:07:44;;;;;;;6.20;2.90;;;4.30;99.90;;;;;;4997486;28;20288;-52
2021/11/30 02:10:14;;;;;;;7.90;3.67;;;4.20;99.90;;;;;;5000584;28;20661;-54
2021/11/30 02:12:42;;;;;;;7.10;3.57;;;4.20;99.90;;;;;;4998918;28;20886;-51
2021/11/30 02:15:11;;;;;;;6.17;3.27;;;4.20;99.90;;;;;;4998744;28;20306;-54
2021/11/30 02:17:39;;;;;;;5.03;3.40;;;4.20;99.90;;;;;;4998601;28;20624;-53
2021/11/30 02:20:08;;;;;;;6.07;3.90;;;4.20;99.90;;;;;;5000200;28;20229;-52
2021/11/30 02:22:36;;;;;;;14.23;4.03;;;4.10;99.90;;;;;;4999990;28;20317;-54
2021/11/30 02:25:04;;;;;;;8.80;4.23;;;4.10;99.90;;;;;;4999493;28;20220;-54
2021/11/30 02:27:31;;;;;;;8.80;3.90;;;4.10;99.90;;;;;;4999980;28;20707;-54
2021/11/30 02:29:58;;;;;;;9.10;4.70;;;4.10;99.90;;;;;;5000291;28;20230;-51
2021/11/30 02:32:25;;;;;;;10.47;5.20;;;4.10;99.90;;;;;;4999395;28;20695;-53
2021/11/30 02:34:52;;;;;;;8.13;4.97;;;4.10;99.90;;;;;;4996940;28;20399;-53
2021/11/30 02:37:24;;;;;;;15.90;5.97;;;4.10;99.90;;;;;;5000509;28;20231;-54
2021/11/30 02:39:52;;;;;;;11.53;4.97;;;4.10;99.90;;;;;;4996878;28;20253;-53
2021/11/30 02:42:20;;;;;;;5.87;5.17;;;4.10;99.90;;;;;;4999597;28;20267;-52
2021/11/30 02:44:47;;;;;;;10.50;5.60;;;4.10;99.90;;;;;;4999278;28;20308;-54
2021/11/30 02:47:15;;;;;;;9.93;5.90;;;4.10;99.90;;;;;;4998450;28;20284;-55
2021/11/30 02:49:43;;;;;;;8.63;6.43;;;4.10;99.90;;;;;;4999194;28;20198;-53
2021/11/30 02:52:17;;;;;;;9.27;7.07;;;4.10;99.90;;;;;;5001722;28;20260;-50
2021/11/30 02:54:47;;;;;;;7.80;6.00;;;4.10;99.90;;;;;;5000712;28;20255;-53
2021/11/30 02:57:17;;;;;;;10.50;7.47;;;4.10;99.90;;;;;;4999656;28;20211;-54
2021/11/30 02:59:49;;;;;;;14.17;8.03;;;4.20;99.90;;;;;;4999415;28;20716;-52
2021/11/30 03:02:28;;;;;;;11.17;8.10;;;4.20;99.90;;;;;;4997396;28;20211;-53
2021/11/30 03:04:58;;;;;;;9.90;7.83;;;4.20;99.90;;;;;;4998090;28;20205;-53
2021/11/30 03:07:28;;;;;;;11.90;8.53;;;4.20;99.90;;;;;;4996851;28;20213;-51
2021/11/30 03:09:55;;;;;;;12.97;8.53;;;4.20;99.90;;;;;;4998312;28;20292;-52
2021/11/30 03:12:23;;;;;;;9.47;8.07;;;4.30;99.90;;;;;;4999171;28;20349;-52
2021/11/30 03:14:50;;;;;;;12.30;8.23;;;4.30;99.90;;;;;;4999325;28;20996;-54
2021/11/30 03:17:17;;;;;;;12.83;8.47;;;4.40;99.90;;;;;;4997618;28;20260;-53
2021/11/30 03:19:44;;;;;;;12.10;8.70;;;4.40;99.90;;;;;;5000796;28;21974;-53
2021/11/30 03:22:11;;;;;;;11.23;9.27;;;4.40;99.90;;;;;;4998482;28;20227;-54
2021/11/30 03:24:38;;;;;;;18.83;10.70;;;4.50;99.90;;;;;;4999907;28;20236;-53
2021/11/30 03:27:05;;;;;;;13.17;9.57;;;4.60;99.90;;;;;;4997272;28;20296;-53
2021/11/30 03:29:32;;;;;;;10.53;8.50;;;4.60;99.90;;;;;;4997005;28;20207;-54
2021/11/30 03:32:09;;;;;;;10.93;8.47;;;4.60;99.90;;;;;;4997676;28;20233;-54
2021/11/30 03:34:36;;;;;;;10.57;8.13;;;4.70;99.90;;;;;;4997868;28;20203;-53
2021/11/30 03:37:08;;;;;;;12.53;9.30;;;4.80;99.90;;;;;;4998831;28;20660;-53
2021/11/30 03:39:36;;;;;;;12.43;8.70;;;4.90;99.90;;;;;;4998143;28;20237;-55
2021/11/30 03:42:03;;;;;;;16.53;10.63;;;4.90;99.90;;;;;;4997997;28;20415;-52
2021/11/30 03:44:30;;;;;;;13.70;8.80;;;5.00;99.90;;;;;;5000101;28;20201;-52
2021/11/30 03:46:58;;;;;;;14.10;9.87;;;5.10;99.90;;;;;;4997724;28;20217;-52
2021/11/30 03:49:27;;;;;;;16.57;9.03;;;5.20;99.90;;;;;;4999000;28;20237;-50
2021/11/30 03:51:55;;;;;;;10.30;7.27;;;5.30;99.90;;;;;;4998952;28;20257;-54
2021/11/30 03:54:22;;;;;;;12.10;6.73;;;5.40;99.90;;;;;;4998474;28;20195;-54
2021/11/30 03:56:49;;;;;;;8.20;6.70;;;5.60;99.90;;;;;;4996243;28;20323;-51
2021/11/30 03:59:17;;;;;;;8.57;6.63;;;5.70;99.90;;;;;;4997254;28;20545;-53
2021/11/30 04:01:45;;;;;;;5.97;5.27;;;5.80;99.90;;;;;;4999585;28;20210;-53
2021/11/30 04:04:41;;;;;;;7.83;5.80;;;5.90;99.90;;;;;;4996326;28;20212;-52
2021/11/30 04:06:59;;;;;;;8.63;4.97;;;6.00;99.90;;;;;;4999154;28;20302;-53
2021/11/30 04:09:26;;;;;;;7.80;5.23;;;6.00;99.90;;;;;;5016818;28;20631;-53
2021/11/30 04:11:54;;;;;;;5.53;4.50;;;6.00;99.90;;;;;;4999401;28;20227;-55
2021/11/30 04:14:25;;;;;;;4.73;3.93;;;6.10;99.90;;;;;;4995467;28;20321;-53
2021/11/30 04:16:51;;;;;;;5.20;4.57;;;6.10;99.90;;;;;;4998091;28;20237;-54
2021/11/30 04:19:19;;;;;;;5.47;4.47;;;6.20;99.90;;;;;;4999568;28;20697;-52
2021/11/30 04:21:46;;;;;;;5.37;4.00;;;6.20;99.90;;;;;;4999254;28;20251;-55
2021/11/30 04:24:13;;;;;;;4.27;3.60;;;6.30;99.90;;;;;;4997457;28;20212;-54
2021/11/30 04:26:40;;;;;;;4.87;4.00;;;6.30;99.90;;;;;;4998030;28;20207;-54
2021/11/30 04:29:07;;;;;;;3.47;3.17;;;6.30;99.90;;;;;;4995942;28;20214;-53
2021/11/30 04:31:35;;;;;;;3.80;3.40;;;6.30;99.90;;;;;;4997425;28;20291;-53
2021/11/30 04:34:03;;;;;;;4.47;3.47;;;6.40;99.90;;;;;;4997195;28;20205;-54
2021/11/30 04:36:31;;;;;;;4.37;3.37;;;6.40;99.90;;;;;;4998422;28;20306;-52
2021/11/30 04:38:59;;;;;;;4.57;3.63;;;6.40;99.90;;;;;;4997305;28;20253;-54
2021/11/30 04:41:26;;;;;;;3.63;3.20;;;6.50;99.90;;;;;;4998605;28;20200;-54
2021/11/30 04:43:53;;;;;;;2.97;2.67;;;6.50;99.90;;;;;;4997985;28;20655;-55
2021/11/30 04:46:24;;;;;;;3.40;2.73;;;6.50;99.90;;;;;;4996068;28;20231;-54
2021/11/30 04:48:58;;;;;;;4.33;3.10;;;6.60;99.90;;;;;;4997998;28;20253;-53
2021/11/30 04:51:31;;;;;;;3.50;3.20;;;6.60;99.90;;;;;;4999169;28;20248;-53
2021/11/30 04:53:59;;;;;;;2.77;2.47;;;6.60;99.90;;;;;;4996857;28;20252;-54
2021/11/30 04:56:26;;;;;;;2.43;2.23;;;6.60;99.90;;;;;;4996653;28;20622;-53
2021/11/30 04:58:52;;;;;;;3.10;2.20;;;6.60;99.90;;;;;;5000937;28;20228;-53
2021/11/30 05:01:19;;;;;;;3.17;2.10;;;6.60;99.90;;;;;;4998092;28;20325;-51
2021/11/30 05:03:48;;;;;;;2.10;1.90;;;6.60;99.90;;;;;;4998297;28;20242;-51
2021/11/30 05:06:16;;;;;;;3.00;2.00;;;6.70;99.90;;;;;;4998682;28;20265;-50
2021/11/30 05:08:42;;;;;;;1.93;1.80;;;6.70;99.90;;;;;;4996479;28;20706;-50
2021/11/30 05:11:09;;;;;;;2.33;1.77;;;6.70;99.90;;;;;;4995904;28;20229;-49
2021/11/30 05:13:36;;;;;;;3.90;1.90;;;6.70;99.90;;;;;;4998210;28;20313;-51
2021/11/30 05:16:03;;;;;;;1.80;1.60;;;6.70;99.90;;;;;;4995930;28;20209;-51
2021/11/30 05:18:30;;;;;;;1.50;1.40;;;6.70;99.90;;;;;;4994792;28;20206;-51
2021/11/30 05:20:59;;;;;;;1.60;1.50;;;6.80;99.90;;;;;;4996330;28;20202;-49
2021/11/30 05:23:28;;;;;;;2.27;2.03;;;6.80;99.90;;;;;;4999353;28;20236;-51
2021/11/30 05:25:59;;;;;;;2.03;1.63;;;6.80;99.90;;;;;;4997718;28;20231;-52
2021/11/30 05:28:27;;;;;;;2.57;1.80;;;6.80;99.90;;;;;;4996953;28;20194;-52
2021/11/30 05:30:58;;;;;;;3.57;1.83;;;6.80;99.90;;;;;;4996347;28;20235;-53
2021/11/30 05:33:25;;;;;;;2.40;1.90;;;6.90;99.90;;;;;;4998408;28;20279;-54
2021/11/30 05:35:52;;;;;;;2.67;1.70;;;6.90;99.90;;;;;;5000412;28;20215;-54
2021/11/30 05:38:19;;;;;;;2.90;1.77;;;6.90;99.90;;;;;;5001413;28;20611;-52
2021/11/30 05:40:47;;;;;;;2.33;2.00;;;7.00;99.90;;;;;;5002647;28;20292;-51
2021/11/30 05:43:14;;;;;;;2.23;1.80;;;7.00;99.90;;;;;;5000085;28;20609;-52
2021/11/30 05:45:41;;;;;;;2.27;1.70;;;7.00;99.90;;;;;;5000406;28;20293;-52
2021/11/30 05:48:08;;;;;;;2.47;2.00;;;7.00;99.90;;;;;;4997609;28;20210;-52
2021/11/30 05:50:35;;;;;;;2.13;1.80;;;7.00;99.90;;;;;;5003144;28;20297;-52
2021/11/30 05:53:03;;;;;;;3.13;2.23;;;7.00;99.90;;;;;;4999273;28;20308;-53
2021/11/30 05:55:31;;;;;;;2.83;2.03;;;7.10;99.90;;;;;;4999769;28;20716;-52
2021/11/30 05:57:58;;;;;;;2.40;1.93;;;7.10;99.90;;;;;;4998042;28;20209;-53
2021/11/30 06:00:27;;;;;;;2.07;1.80;;;7.10;99.90;;;;;;5000383;28;20229;-52
2021/11/30 06:02:59;;;;;;;2.73;2.10;;;7.10;99.90;;;;;;5000194;28;20209;-53
2021/11/30 06:05:27;;;;;;;2.73;2.30;;;7.10;99.90;;;;;;4998631;28;20210;-53
2021/11/30 06:07:55;;;;;;;3.27;2.47;;;7.20;99.90;;;;;;5000139;28;20349;-52
2021/11/30 06:10:22;;;;;;;3.93;2.53;;;7.20;99.90;;;;;;4998140;28;20206;-52
2021/11/30 06:12:49;;;;;;;2.83;2.53;;;7.20;99.90;;;;;;4999153;28;20237;-54
2021/11/30 06:15:17;;;;;;;3.03;2.73;;;7.20;99.90;;;;;;5001092;28;20726;-53
2021/11/30 06:17:43;;;;;;;4.07;2.63;;;7.30;99.90;;;;;;5001307;28;20201;-52
2021/11/30 06:20:11;;;;;;;3.20;2.90;;;7.30;99.90;;;;;;5001127;28;20252;-53
2021/11/30 06:22:41;;;;;;;6.53;3.53;;;7.40;99.90;;;;;;4999987;28;20237;-52
2021/11/30 06:25:08;;;;;;;4.87;3.57;;;7.40;99.90;;;;;;5001249;28;20298;-51
2021/11/30 06:27:35;;;;;;;5.10;3.37;;;7.50;99.90;;;;;;4998651;28;20261;-54
2021/11/30 06:30:03;;;;;;;6.60;3.83;;;7.60;99.90;;;;;;5000476;28;20279;-53
2021/11/30 06:32:30;;;;;;;5.97;3.70;;;7.70;99.90;;;;;;5001527;28;20526;-53
2021/11/30 06:34:57;;;;;;;4.70;3.50;;;7.80;99.90;;;;;;4999812;28;20225;-52
2021/11/30 06:37:24;;;;;;;5.47;3.87;;;8.00;99.90;;;;;;4998179;28;20284;-53
2021/11/30 06:39:56;;;;;;;6.10;3.70;;;8.00;99.90;;;;;;4998330;28;23189;-53
2021/11/30 06:42:24;;;;;;;7.30;3.70;;;8.10;99.90;;;;;;4998283;28;20251;-53
2021/11/30 06:44:51;;;;;;;5.93;3.80;;;8.10;99.90;;;;;;4998891;28;20734;-52
2021/11/30 06:47:19;;;;;;;6.50;4.07;;;8.20;99.90;;;;;;4999326;28;20283;-53
2021/11/30 06:49:46;;;;;;;5.73;4.17;;;8.20;99.90;;;;;;5000656;28;20673;-53
2021/11/30 06:52:13;;;;;;;6.13;4.37;;;8.20;99.90;;;;;;4999029;28;20213;-55
2021/11/30 06:54:44;;;;;;;5.30;3.67;;;8.30;99.90;;;;;;4994369;28;20241;-53
2021/11/30 06:57:12;;;;;;;8.37;4.30;;;8.30;99.90;;;;;;4995472;28;20212;-53
2021/11/30 06:59:40;;;;;;;4.83;3.60;;;8.30;99.90;;;;;;4997763;28;20312;-52
2021/11/30 07:02:10;;;;;;;6.77;4.17;;;8.30;99.90;;;;;;4993478;28;20324;-58
2021/11/30 07:04:42;;;;;;;6.43;4.50;;;8.40;99.90;;;;;;4998075;28;20203;-55
2021/11/30 07:10:33;;;;;;;5.37;4.17;;;8.40;99.90;;;;;;4995498;28;20698;-57
2021/11/30 07:13:35;;;;;;;6.17;4.13;;;8.40;99.90;;;;;;4992692;28;20321;-56
2021/11/30 07:15:55;;;;;;;6.87;4.27;;;8.40;99.90;;;;;;4996682;28;20282;-56
2021/11/30 07:18:23;;;;;;;6.40;4.10;;;8.50;99.90;;;;;;5009201;28;20201;-55
2021/11/30 07:20:52;;;;;;;7.43;4.30;;;8.50;99.90;;;;;;4993957;28;20321;-58
2021/11/30 07:23:20;;;;;;;7.93;4.90;;;8.50;99.90;;;;;;4996983;28;20210;-55
2021/11/30 07:25:51;;;;;;;6.80;5.50;;;8.60;99.90;;;;;;4994496;28;20304;-57
2021/11/30 07:28:22;;;;;;;11.87;4.87;;;8.60;99.90;;;;;;4995397;28;20811;-57
2021/11/30 07:30:49;;;;;;;7.50;4.83;;;8.60;99.90;;;;;;4996844;28;20223;-56
2021/11/30 07:33:16;;;;;;;7.57;4.67;;;8.60;99.90;;;;;;4993176;28;20221;-56
2021/11/30 07:35:43;;;;;;;6.83;4.60;;;8.60;99.90;;;;;;4993143;28;20713;-56
2021/11/30 07:38:10;;;;;;;7.53;4.77;;;8.70;99.90;;;;;;4994491;28;20639;-56
2021/11/30 07:40:37;;;;;;;12.07;5.03;;;8.70;99.90;;;;;;5010487;28;20211;-56
2021/11/30 07:43:05;;;;;;;6.77;4.47;;;8.70;99.90;;;;;;4994093;28;20308;-57
2021/11/30 07:45:32;;;;;;;8.13;4.27;;;8.70;99.90;;;;;;4997244;28;20277;-58
2021/11/30 07:47:59;;;;;;;9.17;5.00;;;8.80;99.90;;;;;;4995575;28;20245;-58
2021/11/30 07:50:26;;;;;;;7.63;4.87;;;8.80;99.90;;;;;;4996899;28;20249;-54
2021/11/30 07:52:54;;;;;;;7.20;4.00;;;8.80;99.90;;;;;;4996817;28;20268;-53
2021/11/30 07:55:21;;;;;;;6.10;4.40;;;8.90;99.90;;;;;;4997589;28;20282;-54
2021/11/30 07:57:47;;;;;;;7.87;4.63;;;8.90;99.90;;;;;;4994277;28;20200;-53
2021/11/30 08:00:17;;;;;;;6.73;4.27;;;8.90;99.90;;;;;;4996281;28;20209;-53
2021/11/30 08:02:44;;;;;;;10.43;4.50;;;9.00;99.90;;;;;;4995949;28;20251;-53
2021/11/30 08:05:13;;;;;;;8.00;4.30;;;9.00;99.90;;;;;;4997111;28;20235;-53
2021/11/30 08:07:40;;;;;;;8.63;4.50;;;9.00;99.90;;;;;;4993755;28;20305;-55
2021/11/30 08:10:14;;;;;;;6.10;4.57;;;9.00;99.90;;;;;;4998330;28;20293;-54
2021/11/30 08:12:41;;;;;;;5.27;3.70;;;9.00;99.90;;;;;;4995490;28;20308;-53
2021/11/30 08:15:10;;;;;;;8.70;4.13;;;9.10;99.90;;;;;;4994141;28;20202;-51
2021/11/30 08:17:57;;;;;;;5.40;4.17;;;9.10;99.90;;;;;;4997484;28;20633;-53
2021/11/30 08:20:24;;;;;;;7.27;3.53;;;9.10;99.90;;;;;;4994944;28;20237;-54
2021/11/30 08:22:51;;;;;;;7.23;3.80;;;9.10;99.90;;;;;;4996348;28;20208;-53
2021/11/30 08:25:18;;;;;;;6.17;3.80;;;9.20;99.90;;;;;;4996135;28;20241;-54
2021/11/30 08:27:45;;;;;;;4.27;3.57;;;9.20;99.90;;;;;;5009459;28;20233;-55
2021/11/30 08:30:12;;;;;;;6.33;3.90;;;9.20;99.90;;;;;;4995102;28;20236;-54
2021/11/30 08:32:40;;;;;;;5.57;3.73;;;9.20;99.90;;;;;;4992577;28;20509;-54
2021/11/30 08:35:09;;;;;;;9.17;4.37;;;9.20;99.90;;;;;;4995439;28;20592;-52
2021/11/30 08:37:36;;;;;;;11.50;3.80;;;9.20;99.90;;;;;;4996961;28;20333;-53
2021/11/30 08:40:07;;;;;;;9.13;4.07;;;9.20;99.90;;;;;;4997334;28;20297;-52
2021/11/30 08:42:34;;;;;;;9.97;3.87;;;9.20;99.90;;;;;;4994388;28;20239;-51
2021/11/30 08:45:02;;;;;;;8.13;4.23;;;9.20;99.90;;;;;;4997026;28;20520;-52
2021/11/30 08:47:29;;;;;;;6.53;3.87;;;9.20;99.90;;;;;;4995899;28;20265;-53
2021/11/30 08:49:55;;;;;;;7.23;4.40;;;9.20;99.90;;;;;;4995808;28;20224;-53
2021/11/30 08:52:27;;;;;;;5.67;3.93;;;9.20;99.90;;;;;;4994271;28;20307;-52
2021/11/30 08:54:56;;;;;;;7.40;3.50;;;9.30;99.90;;;;;;4994500;28;20595;-53
2021/11/30 08:57:25;;;;;;;6.50;3.97;;;9.30;99.90;;;;;;4997376;28;20227;-54
2021/11/30 08:59:53;;;;;;;8.40;4.20;;;9.20;99.90;;;;;;4992813;28;20205;-53
2021/11/30 09:02:21;;;;;;;6.30;4.07;;;9.30;99.90;;;;;;4993251;28;20196;-52
2021/11/30 09:04:49;;;;;;;10.33;4.00;;;9.30;99.90;;;;;;4996463;28;20201;-53
2021/11/30 09:07:16;;;;;;;7.27;4.37;;;9.30;99.90;;;;;;4992880;28;20327;-52
2021/11/30 09:09:46;;;;;;;9.33;4.13;;;9.30;99.90;;;;;;4999431;28;20212;-52
2021/11/30 09:12:15;;;;;;;9.30;4.13;;;9.30;99.90;;;;;;4999506;28;20205;-51
2021/11/30 09:14:42;;;;;;;8.90;3.90;;;9.40;99.90;;;;;;4998606;28;20319;-51
2021/11/30 09:17:08;;;;;;;6.13;4.13;;;9.40;99.90;;;;;;4997256;28;20210;-51
2021/11/30 09:19:35;;;;;;;4.27;3.60;;;9.40;99.90;;;;;;5012800;28;20244;-53
2021/11/30 09:22:07;;;;;;;8.70;4.00;;;9.40;99.90;;;;;;5002330;28;21012;-53
2021/11/30 09:24:34;;;;;;;5.97;3.60;;;9.40;99.90;;;;;;4998500;28;20275;-54
2021/11/30 09:27:01;;;;;;;10.13;3.73;;;9.50;99.90;;;;;;4997958;28;20637;-53
2021/11/30 09:29:28;;;;;;;10.17;3.43;;;9.40;99.90;;;;;;4996111;28;20252;-52
2021/11/30 09:31:55;;;;;;;8.03;3.90;;;9.40;99.90;;;;;;4999476;28;20220;-52
2021/11/30 09:34:24;;;;;;;6.17;3.30;;;9.50;99.90;;;;;;4997959;28;20249;-54
2021/11/30 09:36:53;;;;;;;8.33;3.07;;;9.50;99.90;;;;;;4999077;28;20240;-54
2021/11/30 09:39:23;;;;;;;7.17;3.03;;;9.50;99.90;;;;;;5000294;28;20232;-53
2021/11/30 09:41:50;;;;;;;7.17;3.23;;;9.50;99.90;;;;;;4998792;28;20256;-54
2021/11/30 09:44:17;;;;;;;7.03;3.60;;;9.50;99.90;;;;;;5000511;28;20659;-53
2021/11/30 09:46:44;;;;;;;8.03;3.43;;;9.60;99.90;;;;;;4999233;28;20565;-54
2021/11/30 09:49:13;;;;;;;8.17;3.10;;;9.60;99.90;;;;;;4999017;28;20835;-52
2021/11/30 09:51:40;;;;;;;5.77;2.73;;;9.60;99.90;;;;;;4999178;28;20682;-55
2021/11/30 09:54:07;;;;;;;8.37;3.30;;;9.60;99.90;;;;;;5001403;28;20225;-54
2021/11/30 09:56:34;;;;;;;6.17;2.83;;;9.60;99.90;;;;;;4997308;28;21031;-52
2021/11/30 09:59:01;;;;;;;7.00;2.80;;;9.70;99.90;;;;;;4998504;28;20918;-52
2021/11/30 10:01:28;;;;;;;5.33;3.23;;;9.60;99.90;;;;;;4995953;28;20204;-51
2021/11/30 10:03:55;;;;;;;3.37;2.87;;;9.70;99.90;;;;;;4998665;28;20286;-53
2021/11/30 10:06:22;;;;;;;3.77;2.50;;;9.70;99.90;;;;;;4997917;28;20251;-54
2021/11/30 10:08:54;;;;;;;7.33;3.30;;;9.70;99.90;;;;;;4996454;28;20263;-52
2021/11/30 10:11:36;;;;;;;8.63;3.00;;;9.70;99.90;;;;;;4995790;28;20208;-53
2021/11/30 10:14:12;;;;;;;6.93;3.30;;;9.70;99.90;;;;;;4993812;28;20404;-52
2021/11/30 10:16:40;;;;;;;8.40;3.10;;;9.70;99.90;;;;;;4995657;28;20749;-52
2021/11/30 10:19:08;;;;;;;5.20;3.00;;;9.70;99.90;;;;;;5004145;28;20204;-53
2021/11/30 10:21:35;;;;;;;6.83;3.07;;;9.80;99.90;;;;;;4999762;28;20260;-54
2021/11/30 10:24:07;;;;;;;9.67;3.70;;;9.70;99.90;;;;;;5000869;28;20209;-52
2021/11/30 10:26:38;;;;;;;7.23;3.00;;;9.80;99.90;;;;;;4998125;28;20292;-53
2021/11/30 10:29:09;;;;;;;7.30;3.37;;;9.80;99.90;;;;;;4998409;28;20215;-53
2021/11/30 10:31:40;;;;;;;8.17;2.90;;;9.80;99.90;;;;;;4996210;28;20228;-51
2021/11/30 10:34:18;;;;;;;8.27;3.30;;;9.80;99.90;;;;;;5000444;28;20222;-53
2021/11/30 10:36:52;;;;;;;11.43;3.20;;;9.90;99.90;;;;;;4998487;28;20312;-53
2021/11/30 10:39:25;;;;;;;10.77;3.10;;;9.90;99.90;;;;;;4998838;28;20259;-52
2021/11/30 10:42:10;;;;;;;9.83;3.67;;;9.80;99.90;;;;;;4998287;28;20216;-54
2021/11/30 10:44:37;;;;;;;9.73;3.57;;;9.80;99.90;;;;;;4998430;28;20219;-53
2021/11/30 10:47:15;;;;;;;13.07;4.20;;;9.90;99.90;;;;;;4998217;28;20634;-52
2021/11/30 10:50:00;;;;;;;7.93;3.10;;;9.90;99.90;;;;;;4999327;28;20281;-53
2021/11/30 10:52:32;;;;;;;8.30;3.37;;;9.90;99.90;;;;;;4999626;28;20208;-53
2021/11/30 10:55:16;;;;;;;13.67;4.33;;;10.00;99.90;;;;;;5004690;28;20264;-51
2021/11/30 10:57:47;;;;;;;12.03;3.37;;;10.00;99.90;;;;;;4997282;28;20682;-52
2021/11/30 11:00:29;;;;;;;12.07;3.17;;;10.00;99.90;;;;;;4998297;28;20502;-52
2021/11/30 11:05:50;;;;;;;10.63;3.27;;;10.00;99.90;;;;;;4998197;28;20214;-52
2021/11/30 11:08:19;;;;;;;9.50;3.10;;;10.00;99.90;;;;;;4999181;28;20238;-52
2021/11/30 11:10:58;;;;;;;12.80;2.90;;;10.00;99.90;;;;;;4996412;28;20548;-52
2021/11/30 11:13:29;;;;;;;7.13;2.27;;;10.00;99.90;;;;;;4997993;28;20712;-52
2021/11/30 11:16:03;;;;;;;10.27;3.87;;;10.10;99.90;;;;;;4995430;28;20319;-52
2021/11/30 11:18:35;;;;;;;9.87;3.47;;;10.00;99.90;;;;;;4996553;28;20539;-52
2021/11/30 11:21:36;;;;;;;15.80;3.10;;;10.10;99.90;;;;;;4997887;28;20644;-55
2021/11/30 11:24:09;;;;;;;6.07;2.80;;;10.10;99.90;;;;;;4996921;28;20217;-53
2021/11/30 11:26:43;;;;;;;6.23;2.77;;;10.10;99.90;;;;;;4996286;28;20723;-51
2021/11/30 11:29:32;;;;;;;9.77;2.23;;;10.10;99.90;;;;;;4998144;28;20236;-51
2021/11/30 11:32:03;;;;;;;11.60;2.17;;;10.10;99.90;;;;;;4995656;28;20302;-52
2021/11/30 11:34:32;;;;;;;8.50;2.30;;;10.10;99.90;;;;;;4998776;28;20720;-52
2021/11/30 11:37:01;;;;;;;9.57;2.13;;;10.10;99.90;;;;;;4997854;28;20694;-51
2021/11/30 11:39:30;;;;;;;3.70;2.30;;;10.10;99.90;;;;;;5000368;28;20709;-51
2021/11/30 11:42:03;;;;;;;7.03;2.60;;;10.10;99.90;;;;;;4995045;28;20308;-52
2021/11/30 11:44:30;;;;;;;4.83;2.57;;;10.20;99.90;;;;;;4998132;28;20601;-52
2021/11/30 11:47:04;;;;;;;4.43;1.70;;;10.10;99.90;;;;;;4994780;28;20992;-52
2021/11/30 11:49:37;;;;;;;6.97;2.70;;;10.00;99.90;;;;;;4998412;28;20266;-52
2021/11/30 11:52:06;;;;;;;7.63;2.37;;;10.10;99.90;;;;;;4997154;28;20310;-53
2021/11/30 11:54:35;;;;;;;5.03;2.37;;;10.10;99.90;;;;;;4998409;28;20267;-53
2021/11/30 11:57:10;;;;;;;6.53;2.17;;;10.10;99.90;;;;;;4995689;28;20235;-52
2021/11/30 11:59:43;;;;;;;7.43;2.77;;;10.10;99.90;;;;;;5000442;28;20211;-52
2021/11/30 12:02:21;;;;;;;7.90;3.47;;;10.20;99.90;;;;;;4995918;28;20213;-51
2021/11/30 12:04:58;;;;;;;6.47;2.70;;;10.10;99.90;;;;;;4997513;28;20216;-54
2021/11/30 12:07:27;;;;;;;3.70;2.70;;;10.10;99.90;;;;;;4993240;28;20785;-52
2021/11/30 12:10:14;;;;;;;7.03;3.20;;;10.20;99.90;;;;;;4994556;28;20205;-53
2021/11/30 12:12:52;;;;;;;7.37;3.00;;;10.10;99.90;;;;;;4993997;28;20292;-53
2021/11/30 12:15:19;;;;;;;5.23;2.70;;;10.20;99.90;;;;;;4993576;28;20251;-53
2021/11/30 12:17:46;;;;;;;5.87;2.90;;;10.20;99.90;;;;;;4990866;28;20682;-52
2021/11/30 12:20:14;;;;;;;3.80;2.90;;;10.20;99.90;;;;;;4993970;28;21057;-53
2021/11/30 12:22:43;;;;;;;7.20;3.13;;;10.20;99.90;;;;;;4996019;28;20204;-52
2021/11/30 12:25:25;;;;;;;5.27;2.50;;;10.10;99.90;;;;;;4995997;28;20202;-53
2021/11/30 12:28:04;;;;;;;6.50;2.80;;;10.10;99.90;;;;;;4996335;28;20707;-54
2021/11/30 12:30:34;;;;;;;5.13;2.50;;;10.10;99.90;;;;;;4993692;28;20305;-52
2021/11/30 12:33:03;;;;;;;8.60;3.27;;;10.10;99.90;;;;;;4994510;28;20695;-51
2021/11/30 12:35:53;;;;;;;6.67;2.47;;;10.20;99.90;;;;;;4995336;28;20317;-51
2021/11/30 12:38:40;;;;;;;3.70;1.97;;;10.20;99.90;;;;;;4995193;28;20681;-54
2021/11/30 12:41:22;;;;;;;3.93;1.70;;;10.20;99.90;;;;;;4993524;28;20248;-51
2021/11/30 12:43:55;;;;;;;3.03;1.83;;;10.20;99.90;;;;;;5000918;28;20215;-53
2021/11/30 12:46:32;;;;;;;4.73;2.20;;;10.20;99.90;;;;;;5002226;28;20211;-50
2021/11/30 12:49:00;;;;;;;4.10;2.33;;;10.10;99.90;;;;;;5001511;28;20208;-52
2021/11/30 12:51:29;;;;;;;8.80;2.97;;;10.10;99.90;;;;;;5003148;28;21977;-55
2021/11/30 12:54:05;;;;;;;5.53;2.67;;;10.20;99.90;;;;;;5015125;28;20261;-52
2021/11/30 12:56:48;;;;;;;6.60;2.97;;;10.10;99.90;;;;;;5000278;28;20232;-52
2021/11/30 12:59:37;;;;;;;5.63;3.77;;;10.10;99.90;;;;;;5000640;28;20208;-52
2021/11/30 13:02:24;;;;;;;7.73;3.20;;;10.20;99.90;;;;;;5015127;28;20213;-52
2021/11/30 13:04:55;;;;;;;5.83;2.97;;;10.20;99.90;;;;;;4998920;28;20222;-52
2021/11/30 13:07:25;;;;;;;4.40;2.50;;;10.20;99.90;;;;;;4997578;28;20207;-52
2021/11/30 13:09:54;;;;;;;5.37;3.10;;;10.20;99.90;;;;;;5000988;28;20257;-52
2021/11/30 13:12:23;;;;;;;6.30;2.63;;;10.20;99.90;;;;;;4999517;28;20223;-52
2021/11/30 13:14:52;;;;;;;6.60;2.47;;;10.10;99.90;;;;;;5001557;28;20233;-53